Time;durP1;ratioP1;P1;durP2;ratioP2;P2;SDS_P1;SDS_P2;PMS_P1;PMS_P2;Temp;Humidity;BMP_temperature;BMP_pressure;BME280_temperature;BME280_humidity;BME280_pressure;Samples;Min_cycle;Max_cycle;Signal;HPM_P1;HPM_P2
2021/08/15 00:01:37;;;;;;;2.03;1.55;;;17.00;99.90;;;;;;5051080;28;19916;-82
2021/08/15 00:04:03;;;;;;;4.47;2.38;;;16.90;99.90;;;;;;5049384;28;20053;-81
2021/08/15 00:06:28;;;;;;;2.08;1.63;;;16.90;99.90;;;;;;5050305;28;20039;-81
2021/08/15 00:08:54;;;;;;;;;;;16.90;99.90;;;;;;5051191;28;20033;-81
2021/08/15 00:11:20;;;;;;;2.92;1.55;;;17.00;99.90;;;;;;5050902;28;20007;-79
2021/08/15 00:13:46;;;;;;;;;;;17.00;99.90;;;;;;5052474;28;20110;-82
2021/08/15 00:16:11;;;;;;;2.75;2.15;;;16.90;99.90;;;;;;5051387;28;19923;-79
2021/08/15 00:18:37;;;;;;;;;;;17.00;99.90;;;;;;5051534;28;20033;-82
2021/08/15 00:21:03;;;;;;;3.85;2.35;;;17.00;99.90;;;;;;5042463;28;20447;-79
2021/08/15 00:23:31;;;;;;;1.65;1.52;;;17.00;99.90;;;;;;5050192;28;20044;-83
2021/08/15 00:25:57;;;;;;;3.05;2.40;;;16.90;99.90;;;;;;5050733;28;20090;-82
2021/08/15 00:28:23;;;;;;;2.10;1.27;;;16.90;99.90;;;;;;5053215;28;20045;-80
2021/08/15 00:30:49;;;;;;;5.82;2.53;;;16.90;99.90;;;;;;5053059;28;20033;-83
2021/08/15 00:33:15;;;;;;;;;;;16.90;99.90;;;;;;5036996;28;20049;-80
2021/08/15 00:35:40;;;;;;;3.67;2.58;;;16.90;99.90;;;;;;5053847;28;19920;-83
2021/08/15 00:38:06;;;;;;;;;;;16.90;99.90;;;;;;5038299;28;20364;-80
2021/08/15 00:40:32;;;;;;;4.43;2.58;;;16.90;99.90;;;;;;5054841;28;19976;-82
2021/08/15 00:42:58;;;;;;;;;;;16.90;99.90;;;;;;5053365;28;20124;-82
2021/08/15 00:45:24;;;;;;;3.35;2.20;;;16.90;99.90;;;;;;5054787;28;20019;-81
2021/08/15 00:47:50;;;;;;;;;;;16.90;99.90;;;;;;5053414;28;20095;-80
2021/08/15 00:50:17;;;;;;;3.92;2.28;;;16.90;99.90;;;;;;5055059;28;19916;-81
2021/08/15 00:52:43;;;;;;;4.35;2.92;;;16.90;99.90;;;;;;5053628;28;20044;-83
2021/08/15 00:55:11;;;;;;;3.58;2.75;;;16.90;99.90;;;;;;5036070;28;20045;-81
2021/08/15 00:57:45;;;;;;;4.55;2.60;;;16.90;99.90;;;;;;5053163;28;20047;-82
2021/08/15 01:00:12;;;;;;;2.83;2.15;;;17.00;99.90;;;;;;5044721;28;20098;-84
2021/08/15 01:02:41;;;;;;;3.00;2.67;;;17.00;99.90;;;;;;5052424;28;20116;-81
2021/08/15 01:05:09;;;;;;;3.90;2.60;;;17.00;99.90;;;;;;5041369;28;20067;-83
2021/08/15 01:07:35;;;;;;;2.22;1.80;;;17.00;99.90;;;;;;5054518;28;20041;-80
2021/08/15 01:10:00;;;;;;;;;;;17.00;99.90;;;;;;5053737;28;20482;-79
2021/08/15 01:12:27;;;;;;;6.25;3.30;;;17.00;99.90;;;;;;5036501;28;19970;-82
2021/08/15 01:14:56;;;;;;;4.88;3.08;;;16.90;99.90;;;;;;5036268;28;20045;-81
2021/08/15 01:17:22;;;;;;;4.97;2.88;;;16.90;99.90;;;;;;5053802;28;20063;-83
2021/08/15 01:19:53;;;;;;;;;;;16.90;99.90;;;;;;5054006;28;20094;-82
2021/08/15 01:22:20;;;;;;;3.97;3.03;;;17.00;99.90;;;;;;5054669;28;19924;-83
2021/08/15 01:24:46;;;;;;;2.30;1.75;;;17.00;99.90;;;;;;5053166;28;20062;-83
2021/08/15 01:27:13;;;;;;;3.75;2.65;;;17.00;99.90;;;;;;5053281;28;20037;-82
2021/08/15 01:29:39;;;;;;;3.88;1.92;;;17.00;99.90;;;;;;5054130;28;20128;-83
2021/08/15 01:32:05;;;;;;;4.43;2.78;;;17.10;99.90;;;;;;5051562;28;20041;-80
2021/08/15 01:34:31;;;;;;;;;;;17.00;99.90;;;;;;5054480;28;20044;-81
2021/08/15 01:36:57;;;;;;;10.47;3.40;;;17.10;99.90;;;;;;5053232;28;19923;-80
2021/08/15 01:39:23;;;;;;;;;;;17.10;99.90;;;;;;5051956;28;20517;-80
2021/08/15 01:41:49;;;;;;;3.70;2.30;;;17.10;99.90;;;;;;5052835;28;19928;-79
2021/08/15 01:44:14;;;;;;;;;;;17.10;99.90;;;;;;5053408;28;20041;-82
2021/08/15 01:46:40;;;;;;;3.38;2.53;;;17.10;99.90;;;;;;5052998;28;19921;-80
2021/08/15 01:49:06;;;;;;;;;;;17.00;99.90;;;;;;5053455;28;20048;-83
2021/08/15 01:51:32;;;;;;;4.32;1.92;;;17.00;99.90;;;;;;5053470;28;19917;-82
2021/08/15 01:54:00;;;;;;;;;;;17.00;99.90;;;;;;5053842;28;20124;-82
2021/08/15 01:56:26;;;;;;;4.97;2.10;;;16.90;99.90;;;;;;5052793;28;19928;-80
2021/08/15 01:58:53;;;;;;;3.78;2.28;;;16.90;99.90;;;;;;5051720;28;20044;-79
2021/08/15 02:01:19;;;;;;;;;;;16.90;99.90;;;;;;5053785;28;20056;-81
2021/08/15 02:03:45;;;;;;;4.57;2.28;;;16.80;99.90;;;;;;5045106;28;19928;-82
2021/08/15 02:06:11;;;;;;;3.00;2.13;;;16.80;99.90;;;;;;5052994;28;20037;-80
2021/08/15 02:08:37;;;;;;;;;;;16.70;99.90;;;;;;5053213;28;20061;-82
2021/08/15 02:11:03;;;;;;;2.80;2.60;;;16.70;99.90;;;;;;5053546;28;19948;-82
2021/08/15 02:13:29;;;;;;;;;;;16.70;99.90;;;;;;5052061;28;20542;-81
2021/08/15 02:15:55;;;;;;;2.25;1.60;;;16.70;99.90;;;;;;5052869;28;19956;-79
2021/08/15 02:18:20;;;;;;;;;;;16.60;99.90;;;;;;5053133;28;20110;-80
2021/08/15 02:20:46;;;;;;;3.95;1.65;;;16.60;99.90;;;;;;5052219;28;19954;-82
2021/08/15 02:23:12;;;;;;;;;;;16.50;99.90;;;;;;5053595;28;20455;-80
2021/08/15 02:25:38;;;;;;;2.00;1.45;;;16.40;99.90;;;;;;5053457;28;19917;-80
2021/08/15 02:28:04;;;;;;;;;;;16.40;99.90;;;;;;5053220;28;20048;-81
2021/08/15 02:30:31;;;;;;;6.45;2.47;;;16.40;99.90;;;;;;5042628;28;19939;-82
2021/08/15 02:32:57;;;;;;;3.67;2.13;;;16.40;99.90;;;;;;5052151;28;20115;-80
2021/08/15 02:35:25;;;;;;;3.05;2.00;;;16.50;99.90;;;;;;5053024;28;20115;-80
2021/08/15 02:37:53;;;;;;;3.75;2.50;;;16.50;99.90;;;;;;5054408;28;20037;-81
2021/08/15 02:40:21;;;;;;;2.25;1.60;;;16.60;99.90;;;;;;5051975;28;20061;-81
2021/08/15 02:42:49;;;;;;;2.45;2.17;;;16.70;99.90;;;;;;5053701;28;20443;-82
2021/08/15 02:45:17;;;;;;;4.75;2.05;;;16.70;99.90;;;;;;5052722;28;20118;-82
2021/08/15 02:47:43;;;;;;;4.55;2.75;;;16.70;99.90;;;;;;5052691;28;20054;-81
2021/08/15 02:50:10;;;;;;;2.55;2.05;;;16.80;99.90;;;;;;5051381;28;20489;-81
2021/08/15 02:52:37;;;;;;;5.28;1.77;;;16.80;99.90;;;;;;5052471;28;20043;-82
2021/08/15 02:55:03;;;;;;;;;;;16.70;99.90;;;;;;5051334;28;20544;-82
2021/08/15 02:57:29;;;;;;;3.13;1.98;;;16.80;99.90;;;;;;5050547;28;19923;-83
2021/08/15 02:59:55;;;;;;;3.20;2.05;;;16.80;99.90;;;;;;5052319;28;20056;-80
2021/08/15 03:02:22;;;;;;;6.15;2.30;;;16.90;99.90;;;;;;5052912;28;20051;-82
2021/08/15 03:04:49;;;;;;;1.75;1.33;;;16.90;99.90;;;;;;5052566;28;20044;-80
2021/08/15 03:07:16;;;;;;;2.28;1.05;;;17.00;99.90;;;;;;5056222;28;20044;-82
2021/08/15 03:09:43;;;;;;;3.35;2.25;;;17.00;99.90;;;;;;5055286;28;20409;-79
2021/08/15 03:12:09;;;;;;;1.95;1.75;;;17.00;99.90;;;;;;5052253;28;20055;-82
2021/08/15 03:14:37;;;;;;;4.35;2.20;;;17.00;99.90;;;;;;5053328;28;20049;-81
2021/08/15 03:17:04;;;;;;;4.75;2.35;;;17.00;99.90;;;;;;5051736;28;20777;-83
2021/08/15 03:19:30;;;;;;;3.95;1.60;;;17.00;99.90;;;;;;5053195;28;20059;-83
2021/08/15 03:21:56;;;;;;;;;;;17.00;99.90;;;;;;5053458;28;20041;-80
2021/08/15 03:24:22;;;;;;;2.20;1.52;;;17.00;99.90;;;;;;5053678;28;19924;-83
2021/08/15 03:26:49;;;;;;;;;;;17.00;99.90;;;;;;5054206;28;20029;-81
2021/08/15 03:29:17;;;;;;;3.97;2.33;;;17.00;99.90;;;;;;5056707;28;20010;-78
2021/08/15 03:31:44;;;;;;;6.07;2.50;;;17.00;99.90;;;;;;5052347;28;20044;-80
2021/08/15 03:34:11;;;;;;;3.78;2.47;;;17.00;99.90;;;;;;5039135;28;20099;-83
2021/08/15 03:36:38;;;;;;;3.58;1.83;;;17.00;99.90;;;;;;5052556;28;20504;-81
2021/08/15 03:39:04;;;;;;;3.40;2.22;;;17.00;99.90;;;;;;5052026;28;20041;-82
2021/08/15 03:41:30;;;;;;;3.13;1.98;;;17.00;99.90;;;;;;5052313;28;20037;-85
2021/08/15 03:43:56;;;;;;;6.72;2.63;;;17.00;99.90;;;;;;5051733;28;20041;-81
2021/08/15 03:46:21;;;;;;;;;;;17.00;99.90;;;;;;5051924;28;20040;-79
2021/08/15 03:48:47;;;;;;;3.50;2.60;;;17.00;99.90;;;;;;5052902;28;20407;-78
2021/08/15 03:51:14;;;;;;;1.95;1.77;;;17.00;99.90;;;;;;5054470;28;20041;-81
2021/08/15 03:53:43;;;;;;;3.88;2.30;;;17.00;99.90;;;;;;5053397;28;20044;-81
2021/08/15 03:56:09;;;;;;;;;;;17.00;99.90;;;;;;5051845;28;20087;-80
2021/08/15 03:58:35;;;;;;;4.30;2.55;;;17.00;99.90;;;;;;5052481;28;19958;-81
2021/08/15 04:01:02;;;;;;;5.47;2.53;;;17.00;99.90;;;;;;5051648;28;20041;-80
2021/08/15 04:03:29;;;;;;;3.60;2.30;;;16.90;99.90;;;;;;5053650;28;20119;-80
2021/08/15 04:05:56;;;;;;;3.72;2.20;;;17.00;99.90;;;;;;5055669;28;20063;-79
2021/08/15 04:08:23;;;;;;;4.13;2.35;;;17.00;99.90;;;;;;5055862;28;20033;-81
2021/08/15 04:10:49;;;;;;;5.05;2.10;;;16.90;99.90;;;;;;5055628;28;20524;-81
2021/08/15 04:13:15;;;;;;;;;;;17.00;99.90;;;;;;5055911;28;20128;-82
2021/08/15 04:15:41;;;;;;;3.45;1.42;;;17.00;99.90;;;;;;5056993;28;20007;-81
2021/08/15 04:18:07;;;;;;;;;;;16.90;99.90;;;;;;5037167;28;20068;-81
2021/08/15 04:20:32;;;;;;;1.88;1.38;;;16.90;99.90;;;;;;5051397;28;19948;-81
2021/08/15 04:22:58;;;;;;;;;;;16.90;99.90;;;;;;5054704;28;20040;-83
2021/08/15 04:25:24;;;;;;;3.75;1.58;;;16.90;99.90;;;;;;5056536;28;19951;-83
2021/08/15 04:27:49;;;;;;;;;;;16.80;99.90;;;;;;5056052;28;20086;-83
2021/08/15 04:30:15;;;;;;;1.50;1.35;;;16.80;99.90;;;;;;5055669;28;20390;-81
2021/08/15 04:32:41;;;;;;;;;;;16.80;99.90;;;;;;5055615;28;20036;-82
2021/08/15 04:35:07;;;;;;;2.67;1.23;;;16.70;99.90;;;;;;5054758;28;20366;-81
2021/08/15 04:37:33;;;;;;;5.03;1.23;;;16.70;99.90;;;;;;5055552;28;20096;-81
2021/08/15 04:39:59;;;;;;;1.88;1.40;;;16.70;99.90;;;;;;5054011;28;20147;-82
2021/08/15 04:42:25;;;;;;;;;;;16.70;99.90;;;;;;5057004;28;20112;-81
2021/08/15 04:44:55;;;;;;;1.42;1.17;;;16.70;99.90;;;;;;5055944;28;19917;-84
2021/08/15 04:47:21;;;;;;;2.17;0.80;;;16.70;99.90;;;;;;5053741;28;20048;-81
2021/08/15 04:49:52;;;;;;;1.48;1.08;;;16.70;99.90;;;;;;5056254;28;20115;-82
2021/08/15 04:52:18;;;;;;;;;;;16.70;99.90;;;;;;5056088;28;20106;-81
2021/08/15 04:54:44;;;;;;;1.50;1.33;;;16.70;99.90;;;;;;5055417;28;19935;-82
2021/08/15 04:57:09;;;;;;;;;;;16.70;99.90;;;;;;5053921;28;20044;-81
2021/08/15 04:59:35;;;;;;;3.00;1.85;;;16.60;99.90;;;;;;5055451;28;19917;-80
2021/08/15 05:02:06;;;;;;;1.58;0.98;;;16.60;99.90;;;;;;5044749;28;20064;-81
2021/08/15 05:04:32;;;;;;;1.80;1.27;;;16.70;99.90;;;;;;5052182;28;20098;-80
2021/08/15 05:07:00;;;;;;;1.83;1.23;;;16.60;99.90;;;;;;5058693;28;20033;-78
2021/08/15 05:09:26;;;;;;;1.50;0.98;;;16.70;99.90;;;;;;5057230;28;20040;-84
2021/08/15 05:11:52;;;;;;;;;;;16.70;99.90;;;;;;5055742;28;20379;-81
2021/08/15 05:14:17;;;;;;;2.03;1.48;;;16.70;99.90;;;;;;5053960;28;19920;-82
2021/08/15 05:16:43;;;;;;;;;;;16.60;99.90;;;;;;5057766;28;20041;-83
2021/08/15 05:19:09;;;;;;;1.27;1.02;;;16.70;99.90;;;;;;5058303;28;19917;-82
2021/08/15 05:21:35;;;;;;;3.45;1.38;;;16.70;99.90;;;;;;5052520;28;20052;-83
2021/08/15 05:24:01;;;;;;;;;;;16.80;99.90;;;;;;5055145;28;20041;-82
2021/08/15 05:26:27;;;;;;;0.98;0.90;;;16.80;99.90;;;;;;5054783;28;19924;-83
2021/08/15 05:28:53;;;;;;;;;;;16.80;99.90;;;;;;5056797;28;20045;-82
2021/08/15 05:31:19;;;;;;;2.17;1.25;;;16.90;99.90;;;;;;5052780;28;19924;-82
2021/08/15 05:33:45;;;;;;;1.45;1.13;;;17.00;99.90;;;;;;5053465;28;20632;-82
2021/08/15 05:36:11;;;;;;;4.10;1.65;;;17.10;99.90;;;;;;5052985;28;20113;-83
2021/08/15 05:38:37;;;;;;;1.42;1.23;;;17.20;99.90;;;;;;5053906;28;20057;-83
2021/08/15 05:41:03;;;;;;;;;;;17.20;99.90;;;;;;5053137;28;20068;-82
2021/08/15 05:43:29;;;;;;;2.30;1.35;;;17.30;99.90;;;;;;5053922;28;20433;-83
2021/08/15 05:45:54;;;;;;;;;;;17.50;99.90;;;;;;5055178;28;20037;-82
2021/08/15 05:48:20;;;;;;;1.65;1.13;;;17.50;99.90;;;;;;5053021;28;19917;-83
2021/08/15 05:50:46;;;;;;;;;;;17.50;99.90;;;;;;5053525;28;20037;-83
2021/08/15 05:53:12;;;;;;;2.35;1.77;;;17.50;99.90;;;;;;5053596;28;19917;-83
2021/08/15 05:55:38;;;;;;;;;;;17.50;99.90;;;;;;5054640;28;20116;-81
2021/08/15 05:58:04;;;;;;;1.73;1.58;;;17.50;99.90;;;;;;5053339;28;20270;-80
2021/08/15 06:00:29;;;;;;;;;;;17.60;99.90;;;;;;5054708;28;20059;-81
2021/08/15 06:02:56;;;;;;;2.80;1.93;;;17.60;99.90;;;;;;5038314;28;20398;-80
2021/08/15 06:05:21;;;;;;;;;;;17.70;99.90;;;;;;5044541;28;20041;-84
2021/08/15 06:07:47;;;;;;;5.70;2.72;;;17.70;99.90;;;;;;5054021;28;20324;-83
2021/08/15 06:10:13;;;;;;;;;;;17.70;99.90;;;;;;5052415;28;20045;-80
2021/08/15 06:12:39;;;;;;;3.30;1.23;;;17.70;99.90;;;;;;5053826;28;19923;-81
2021/08/15 06:15:12;;;;;;;5.43;2.65;;;17.70;99.90;;;;;;5052638;28;20048;-80
2021/08/15 06:17:39;;;;;;;2.40;1.73;;;17.70;99.90;;;;;;5053695;28;20037;-84
2021/08/15 06:20:07;;;;;;;2.80;2.38;;;17.70;99.90;;;;;;5056152;28;20047;-79
2021/08/15 06:22:40;;;;;;;6.20;2.55;;;17.80;99.90;;;;;;5040372;28;20052;-79
2021/08/15 06:25:07;;;;;;;4.00;2.70;;;18.00;99.90;;;;;;5059857;28;20045;-82
2021/08/15 06:27:34;;;;;;;3.75;2.75;;;18.00;99.90;;;;;;5038852;28;20416;-81
2021/08/15 06:30:00;;;;;;;5.75;2.65;;;18.10;99.90;;;;;;5062473;28;20085;-79
2021/08/15 06:32:26;;;;;;;9.82;2.90;;;18.20;99.90;;;;;;5067359;28;20048;-85
2021/08/15 06:34:52;;;;;;;;;;;18.30;99.90;;;;;;5064428;28;20045;-84
2021/08/15 06:37:17;;;;;;;2.35;1.90;;;18.40;99.90;;;;;;5058004;28;20366;-80
2021/08/15 06:39:43;;;;;;;;;;;18.50;99.90;;;;;;5057080;28;20037;-80
2021/08/15 06:42:09;;;;;;;2.80;1.80;;;18.50;99.90;;;;;;5054996;28;19920;-80
2021/08/15 06:44:37;;;;;;;;;;;18.60;99.90;;;;;;5053897;28;20183;-82
2021/08/15 06:47:04;;;;;;;3.90;1.83;;;18.80;99.90;;;;;;5036376;28;19931;-83
2021/08/15 06:49:31;;;;;;;4.10;1.70;;;18.90;99.90;;;;;;5053661;28;20033;-80
2021/08/15 06:51:56;;;;;;;2.35;1.73;;;19.00;99.90;;;;;;5055888;28;20033;-83
2021/08/15 06:54:25;;;;;;;3.67;2.13;;;19.00;99.90;;;;;;5053663;28;20051;-82
2021/08/15 06:56:51;;;;;;;2.38;1.70;;;19.10;99.90;;;;;;5050872;28;20041;-82
2021/08/15 06:59:17;;;;;;;;;;;19.10;99.90;;;;;;5053778;28;20044;-83
2021/08/15 07:01:43;;;;;;;3.78;2.63;;;19.20;99.90;;;;;;5053105;28;19921;-82
2021/08/15 07:04:09;;;;;;;4.43;2.20;;;19.30;99.90;;;;;;5051419;28;20072;-84
2021/08/15 07:06:35;;;;;;;3.47;2.13;;;19.30;99.90;;;;;;5052134;28;20360;-82
2021/08/15 07:09:01;;;;;;;2.97;2.05;;;19.40;99.90;;;;;;5051964;28;20538;-82
2021/08/15 07:11:26;;;;;;;;;;;19.40;99.90;;;;;;5052063;28;20036;-82
2021/08/15 07:13:52;;;;;;;3.35;1.25;;;19.40;99.90;;;;;;5052934;28;19956;-82
2021/08/15 07:16:18;;;;;;;;;;;19.30;99.90;;;;;;5053254;28;20033;-81
2021/08/15 07:18:44;;;;;;;5.18;1.98;;;19.50;99.90;;;;;;5051458;28;20422;-81
2021/08/15 07:21:09;;;;;;;;;;;19.60;99.90;;;;;;5046782;28;20482;-83
2021/08/15 07:23:35;;;;;;;3.13;1.92;;;19.80;99.90;;;;;;5052735;28;19917;-82
2021/08/15 07:26:02;;;;;;;;;;;19.80;99.90;;;;;;5053537;28;20044;-84
2021/08/15 07:28:28;;;;;;;;;;;19.90;99.90;;;;;;5052488;28;19916;-80
2021/08/15 07:30:54;;;;;;;2.05;1.55;;;20.00;99.90;;;;;;5051615;28;19916;-82
2021/08/15 07:33:20;;;;;;;1.58;1.17;;;20.10;99.90;;;;;;5051204;28;20032;-80
2021/08/15 07:35:47;;;;;;;2.00;1.48;;;20.10;99.90;;;;;;5052675;28;20045;-83
2021/08/15 07:38:13;;;;;;;2.72;1.83;;;20.10;99.90;;;;;;5054092;28;20040;-83
2021/08/15 07:40:39;;;;;;;3.42;1.88;;;20.20;99.90;;;;;;5052157;28;20043;-80
2021/08/15 07:43:05;;;;;;;;;;;20.20;99.90;;;;;;5054123;28;20045;-85
2021/08/15 07:45:32;;;;;;;2.58;1.90;;;20.30;99.90;;;;;;5053154;28;19923;-83
2021/08/15 07:47:58;;;;;;;2.60;1.80;;;20.30;99.90;;;;;;5052631;28;20134;-82
2021/08/15 07:50:25;;;;;;;5.10;1.85;;;20.30;99.90;;;;;;5053802;28;20051;-82
2021/08/15 07:52:51;;;;;;;3.30;2.13;;;20.30;99.90;;;;;;5053457;28;20040;-82
2021/08/15 07:55:17;;;;;;;1.95;1.63;;;20.20;99.90;;;;;;5034811;28;20092;-83
2021/08/15 07:57:42;;;;;;;;;;;20.20;99.90;;;;;;5045479;28;20106;-83
2021/08/15 08:00:09;;;;;;;1.42;1.05;;;20.20;99.90;;;;;;5053083;28;20247;-81
2021/08/15 08:02:35;;;;;;;5.32;1.70;;;20.30;99.90;;;;;;5051401;28;20037;-81
2021/08/15 08:05:01;;;;;;;2.03;1.42;;;20.40;99.90;;;;;;5039037;28;20045;-84
2021/08/15 08:07:27;;;;;;;4.95;1.85;;;20.60;99.90;;;;;;5034143;28;20125;-81
2021/08/15 08:09:53;;;;;;;2.47;1.50;;;20.70;99.90;;;;;;5051255;28;20041;-82
2021/08/15 08:12:20;;;;;;;3.33;2.05;;;20.80;99.90;;;;;;5051425;28;20116;-80
2021/08/15 08:14:47;;;;;;;4.75;1.77;;;21.00;99.90;;;;;;5052772;28;20092;-81
2021/08/15 08:17:13;;;;;;;2.30;1.83;;;21.20;99.90;;;;;;5051248;28;20037;-82
2021/08/15 08:19:41;;;;;;;1.80;1.50;;;21.40;99.90;;;;;;5051982;28;20116;-80
2021/08/15 08:22:07;;;;;;;8.38;2.45;;;21.40;99.90;;;;;;5051624;28;20405;-82
2021/08/15 08:24:33;;;;;;;2.47;1.80;;;21.20;99.90;;;;;;5052049;28;20048;-80
2021/08/15 08:26:59;;;;;;;1.55;1.27;;;21.20;99.90;;;;;;5050253;28;20111;-83
2021/08/15 08:29:25;;;;;;;1.48;1.27;;;21.20;99.90;;;;;;5046560;28;20061;-82
2021/08/15 08:31:51;;;;;;;2.33;1.52;;;21.20;99.90;;;;;;5045296;28;20115;-79
2021/08/15 08:34:17;;;;;;;5.30;2.10;;;21.30;99.90;;;;;;5052762;28;20045;-84
2021/08/15 08:36:42;;;;;;;2.22;2.00;;;21.40;99.90;;;;;;5032748;28;20053;-83
2021/08/15 08:39:08;;;;;;;3.80;1.90;;;21.70;99.90;;;;;;5052036;28;20037;-82
2021/08/15 08:41:37;;;;;;;2.58;1.90;;;21.80;99.90;;;;;;5034578;28;20125;-83
2021/08/15 08:44:04;;;;;;;1.80;1.55;;;21.80;99.90;;;;;;5052594;28;20049;-83
2021/08/15 08:46:30;;;;;;;3.15;1.85;;;21.70;99.90;;;;;;5051794;28;20040;-78
2021/08/15 08:48:57;;;;;;;4.07;2.65;;;21.60;99.90;;;;;;5053454;28;20055;-81
2021/08/15 08:51:23;;;;;;;3.13;1.33;;;21.40;99.90;;;;;;5055573;28;20108;-82
2021/08/15 08:53:50;;;;;;;3.50;2.17;;;21.30;99.90;;;;;;5056619;28;20102;-81
2021/08/15 08:56:18;;;;;;;3.22;2.10;;;21.20;99.90;;;;;;5058951;28;20466;-81
2021/08/15 08:58:44;;;;;;;6.03;2.13;;;21.00;99.90;;;;;;5060705;28;20080;-81
2021/08/15 09:01:14;;;;;;;3.55;2.00;;;20.90;99.90;;;;;;5059244;28;20386;-81
2021/08/15 09:03:40;;;;;;;1.98;1.67;;;20.90;99.90;;;;;;5055086;28;20348;-81
2021/08/15 09:06:26;;;;;;;2.83;1.50;;;20.90;99.90;;;;;;5055851;28;20040;-80
2021/08/15 09:08:52;;;;;;;2.08;1.58;;;21.10;99.90;;;;;;5054996;28;20044;-80
2021/08/15 09:11:26;;;;;;;3.22;1.63;;;21.10;99.90;;;;;;5055450;28;20044;-80
2021/08/15 09:14:07;;;;;;;2.55;1.98;;;21.20;99.90;;;;;;5054951;28;20057;-80
2021/08/15 09:16:58;;;;;;;3.63;1.95;;;21.20;99.90;;;;;;5043178;28;20041;-81
2021/08/15 09:19:37;;;;;;;2.47;2.05;;;21.30;99.90;;;;;;5053478;28;20371;-79
2021/08/15 09:22:10;;;;;;;3.78;1.60;;;21.40;99.90;;;;;;5056657;28;20043;-82
2021/08/15 09:24:48;;;;;;;1.67;1.55;;;21.40;99.90;;;;;;5058501;28;20041;-81
2021/08/15 09:27:20;;;;;;;6.18;2.28;;;21.50;99.90;;;;;;5067659;28;20029;-83
2021/08/15 09:30:04;;;;;;;1.60;1.45;;;21.50;99.90;;;;;;5060066;28;20091;-81
2021/08/15 09:32:30;;;;;;;2.47;1.80;;;21.70;99.90;;;;;;5055794;28;20037;-80
2021/08/15 09:35:01;;;;;;;2.40;1.73;;;21.90;99.90;;;;;;5057438;28;20052;-83
2021/08/15 09:37:32;;;;;;;2.92;1.92;;;22.20;99.90;;;;;;5054901;28;20037;-80
2021/08/15 09:39:58;;;;;;;5.10;1.85;;;22.30;99.90;;;;;;5055851;28;20068;-82
2021/08/15 09:42:43;;;;;;;2.20;1.77;;;22.50;99.90;;;;;;5053087;28;20432;-82
2021/08/15 09:45:14;;;;;;;2.88;1.85;;;22.70;99.90;;;;;;5053715;28;20037;-80
2021/08/15 09:47:41;;;;;;;2.30;1.60;;;22.80;99.90;;;;;;5053951;28;20037;-81
2021/08/15 09:50:27;;;;;;;3.13;2.05;;;22.80;99.90;;;;;;5054516;28;20527;-81
2021/08/15 09:52:53;;;;;;;2.53;1.95;;;23.00;99.90;;;;;;5056726;28;20045;-81
2021/08/15 09:55:19;;;;;;;4.15;1.88;;;23.10;99.90;;;;;;5054166;28;20100;-81
2021/08/15 09:57:45;;;;;;;3.20;1.80;;;23.20;99.90;;;;;;5053682;28;20131;-81
2021/08/15 10:00:20;;;;;;;5.35;1.95;;;23.30;99.90;;;;;;5042708;28;20041;-80
2021/08/15 10:02:47;;;;;;;1.30;1.20;;;23.40;99.90;;;;;;5041729;28;20041;-78
2021/08/15 10:05:13;;;;;;;1.75;1.35;;;23.30;99.90;;;;;;5055313;28;20229;-80
2021/08/15 10:07:40;;;;;;;7.70;1.92;;;23.30;99.90;;;;;;5054073;28;20496;-83
2021/08/15 10:10:06;;;;;;;2.13;1.58;;;23.30;99.90;;;;;;5053435;28;20049;-80
2021/08/15 10:12:34;;;;;;;7.25;1.75;;;23.40;99.90;;;;;;5053426;28;20104;-80
2021/08/15 10:15:01;;;;;;;4.35;1.98;;;23.40;99.90;;;;;;5052630;28;20077;-80
2021/08/15 10:17:29;;;;;;;1.77;1.30;;;23.40;99.90;;;;;;5052978;28;20040;-79
2021/08/15 10:20:02;;;;;;;3.50;1.20;;;23.50;99.90;;;;;;5053092;28;20068;-83
2021/08/15 10:22:30;;;;;;;2.38;1.67;;;23.50;99.90;;;;;;5053017;28;20063;-83
2021/08/15 10:25:00;;;;;;;1.33;1.13;;;23.70;99.90;;;;;;5054360;28;20071;-80
2021/08/15 10:27:43;;;;;;;2.33;1.77;;;24.10;99.90;;;;;;5051842;28;20112;-81
2021/08/15 10:30:20;;;;;;;0.80;0.80;;;24.40;99.90;;;;;;5054881;28;20041;-84
2021/08/15 10:32:55;;;;;;;2.38;1.15;;;24.60;99.90;;;;;;5054850;28;20044;-81
2021/08/15 10:35:32;;;;;;;2.13;1.60;;;24.60;99.90;;;;;;5054678;28;20041;-81
2021/08/15 10:37:59;;;;;;;2.95;1.73;;;24.60;99.90;;;;;;5055005;28;20466;-84
2021/08/15 10:40:42;;;;;;;1.60;1.40;;;24.40;99.90;;;;;;5053872;28;20060;-81
2021/08/15 10:43:35;;;;;;;3.08;1.50;;;24.20;99.90;;;;;;5047360;28;20044;-82
2021/08/15 10:46:12;;;;;;;4.13;1.65;;;24.00;99.90;;;;;;5053792;28;20115;-81
2021/08/15 10:48:51;;;;;;;;;;;24.30;99.90;;;;;;5053035;28;20112;-81
2021/08/15 10:51:39;;;;;;;1.48;1.23;;;24.40;99.90;;;;;;5053520;28;19916;-80
2021/08/15 10:54:06;;;;;;;1.17;1.02;;;24.40;99.90;;;;;;5053398;28;20056;-81
2021/08/15 10:57:04;;;;;;;1.50;1.30;;;24.40;99.90;;;;;;5051916;28;20036;-78
2021/08/15 10:59:34;;;;;;;1.75;0.90;;;24.60;99.90;;;;;;5046344;28;20052;-83
2021/08/15 11:02:19;;;;;;;1.60;1.20;;;24.60;99.90;;;;;;5055259;28;20530;-80
2021/08/15 11:04:58;;;;;;;2.80;0.90;;;24.70;99.90;;;;;;5066707;28;20079;-79
2021/08/15 11:07:38;;;;;;;2.92;1.65;;;24.70;99.90;;;;;;5051317;28;20072;-82
2021/08/15 11:10:07;;;;;;;9.02;1.92;;;24.80;99.90;;;;;;5051732;28;20041;-84
2021/08/15 11:12:33;;;;;;;3.92;1.70;;;24.70;99.90;;;;;;5051434;28;20037;-82
2021/08/15 11:15:08;;;;;;;1.55;1.08;;;24.70;99.90;;;;;;5052876;28;20053;-82
2021/08/15 11:17:39;;;;;;;2.20;1.13;;;24.60;99.90;;;;;;5051835;28;20037;-82
2021/08/15 11:20:34;;;;;;;3.33;1.10;;;24.60;99.90;;;;;;5052665;28;20037;-84
2021/08/15 11:23:09;;;;;;;1.48;1.10;;;24.90;99.90;;;;;;5040963;28;20120;-81
2021/08/15 11:25:35;;;;;;;3.38;1.95;;;25.20;99.90;;;;;;5052385;28;20052;-84
2021/08/15 11:28:01;;;;;;;2.83;1.50;;;25.40;99.90;;;;;;5052854;28;20037;-81
2021/08/15 11:30:27;;;;;;;2.97;1.48;;;25.40;99.90;;;;;;5051042;28;20386;-81
2021/08/15 11:32:55;;;;;;;3.55;1.65;;;25.30;99.90;;;;;;5052514;28;20076;-80
2021/08/15 11:35:21;;;;;;;2.15;1.30;;;25.40;99.90;;;;;;5052346;28;20059;-80
2021/08/15 11:37:52;;;;;;;2.90;1.77;;;25.50;99.90;;;;;;5050951;28;20045;-82
2021/08/15 11:40:40;;;;;;;2.03;1.52;;;25.50;99.90;;;;;;5052052;28;20064;-81
2021/08/15 11:43:12;;;;;;;2.70;1.33;;;25.50;99.90;;;;;;5044312;28;20509;-84
2021/08/15 11:45:54;;;;;;;3.28;1.33;;;25.60;99.90;;;;;;5051645;28;20609;-84
2021/08/15 11:48:30;;;;;;;3.85;1.90;;;25.60;99.90;;;;;;5051520;28;20091;-82
2021/08/15 11:50:58;;;;;;;2.08;1.40;;;25.40;99.90;;;;;;5052151;28;20041;-81
2021/08/15 11:53:27;;;;;;;8.23;2.53;;;25.40;99.90;;;;;;5052398;28;20091;-84
2021/08/15 11:55:54;;;;;;;1.40;1.30;;;25.50;99.90;;;;;;5051282;28;20087;-82
2021/08/15 11:58:20;;;;;;;1.52;1.35;;;25.40;98.90;;;;;;5051875;28;20040;-81
2021/08/15 12:00:48;;;;;;;2.78;1.60;;;25.40;99.90;;;;;;5050593;28;20071;-83
2021/08/15 12:03:19;;;;;;;2.10;1.52;;;25.40;99.90;;;;;;5051544;28;20096;-82
2021/08/15 12:05:50;;;;;;;2.72;1.77;;;25.50;99.90;;;;;;5052397;28;20037;-82
2021/08/15 12:08:20;;;;;;;3.30;1.85;;;25.60;99.30;;;;;;5049469;28;20478;-82
2021/08/15 12:10:53;;;;;;;3.42;1.92;;;25.80;98.80;;;;;;5052267;28;20041;-79
2021/08/15 12:13:31;;;;;;;1.50;1.20;;;25.60;97.00;;;;;;5051756;28;20045;-82
2021/08/15 12:16:00;;;;;;;2.17;1.40;;;25.60;98.50;;;;;;5050324;28;20041;-81
2021/08/15 12:18:26;;;;;;;3.65;1.73;;;25.70;98.50;;;;;;5048652;28;20048;-83
2021/08/15 12:20:52;;;;;;;2.50;1.70;;;25.70;97.70;;;;;;5049496;28;20035;-79
2021/08/15 12:23:18;;;;;;;5.75;2.03;;;25.70;97.80;;;;;;5048985;28;20079;-80
2021/08/15 12:26:06;;;;;;;1.67;1.50;;;25.60;97.60;;;;;;5053401;28;20514;-80
2021/08/15 12:28:33;;;;;;;2.05;1.38;;;25.50;97.90;;;;;;5053018;28;20095;-80
2021/08/15 12:31:19;;;;;;;2.33;1.48;;;25.40;96.50;;;;;;5060956;28;20124;-85
2021/08/15 12:33:45;;;;;;;6.03;2.20;;;25.20;97.50;;;;;;5054241;28;20040;-80
2021/08/15 12:36:23;;;;;;;3.47;1.33;;;25.00;96.60;;;;;;5053498;28;20037;-78
2021/08/15 12:39:00;;;;;;;2.22;1.17;;;24.90;96.50;;;;;;5054577;28;20129;-82
2021/08/15 12:41:30;;;;;;;1.63;1.13;;;24.80;96.70;;;;;;5054890;28;20076;-79
2021/08/15 12:44:28;;;;;;;1.80;1.52;;;24.90;98.20;;;;;;5049998;28;20390;-82
2021/08/15 12:47:08;;;;;;;3.78;2.08;;;25.20;97.10;;;;;;5014025;28;20049;-80
2021/08/15 12:49:57;;;;;;;4.45;1.48;;;25.30;95.80;;;;;;5053792;28;20048;-82
2021/08/15 12:52:29;;;;;;;0.85;0.60;;;25.10;95.40;;;;;;5049567;28;20053;-84
2021/08/15 12:55:11;;;;;;;1.88;1.20;;;25.10;96.20;;;;;;5055930;28;20116;-83
2021/08/15 12:57:37;;;;;;;2.00;1.23;;;25.40;97.10;;;;;;5055141;28;20044;-80
2021/08/15 13:00:05;;;;;;;11.85;1.52;;;25.60;96.40;;;;;;5056474;28;20108;-79
2021/08/15 13:02:31;;;;;;;1.48;1.23;;;25.80;96.50;;;;;;5056059;28;20051;-81
2021/08/15 13:04:58;;;;;;;1.60;1.13;;;26.00;95.50;;;;;;5053704;28;20036;-81
2021/08/15 13:07:25;;;;;;;1.88;1.25;;;26.30;95.50;;;;;;5054528;28;20047;-80